White Sulphur Springs, New York
Current Conditions -  °F | °C
As of 7:15 AM on Monday 22 Dec 2014 (Local Time) from KMSV Reporting Station
Overcast Overcast  
Wind Chill: 21°   Ceiling: 400
Heat Index: 28°   Visibility: 7mi
Dew Point: 28°   Wind: 7mph
Humidity: 100%   Direction: 90°E
Pressure: 30.27"   Gusts: NA
Location:  41.8°N, 74.83°W
Report Text: KMSV 221215Z AUTO 09006KT 7SM OVC004 M02/M02 A3027 RMK AO1
Loading
Personal Weather Stations






























Interactive Weather Map New forecast layout! Learn more

10-Day Weather Forecast

Advertisements
Track Severe Weather on mobile